METAR Data
IDs: Format: Raw Decoded Include TAF

Data at: 1205 UTC 16 Feb 2019

PAIL 161153Z AUTO 12008KT 1SM -SN BR VV010 M02/M02 A3007 RMK AO2 SLP184 P0003 60003 70003 T10171022 11011 21028 51020 TSNO $
PAIL 161132Z AUTO 13009KT 3/4SM -SN BR VV013 M02/M03 A3006 RMK AO2 P0001 T10221028 TSNO $
PAIL 161103Z AUTO 14013KT 1 1/4SM -SN BR OVC020 M03/M04 A3005 RMK AO2 P0000 T10281039 TSNO $
PAIL 161053Z AUTO 14011G21KT 2SM -SN BR OVC020 M03/M04 A3005 RMK AO2 PK WND 14027/0956 SLP178 P0000 T10281039 TSNO $
PAIL 161045Z AUTO 14015G21KT 1 1/2SM -SN BR OVC018 M03/M04 A3005 RMK AO2 PK WND 14027/0956 P0000 T10281039 TSNO $
PAIL 161034Z AUTO 14014G21KT 1 1/4SM -SN BR OVC014 M03/M04 A3004 RMK AO2 PK WND 14027/0956 P0000 T10281044 TSNO $
PAIL 161023Z AUTO 14015G25KT 1 1/4SM -SN BR OVC015 M03/M05 A3005 RMK AO2 PK WND 14027/0956 P0000 T10281050 TSNO $
PAIL 161007Z AUTO 13015G25KT 2SM -SN OVC021 M02/M06 A3005 RMK AO2 PK WND 14027/0956 P0000 T10221061 TSNO $
PAIL 161000Z AUTO 13019G29KT 3SM -SN OVC025 M02/M07 A3004 RMK AO2 PK WND 14027/0956 P0000 T10171072 TSNO $
PAIL 160953Z AUTO 14020G29KT 7SM -SN OVC031 M01/M09 A3004 RMK AO2 PK WND 13029/0952 SNB49 SLP174 P0000 T10111089 TSNO $
PAIL 160853Z AUTO 15014G21KT 10SM OVC048 M02/M08 A3001 RMK AO2 SLP164 T10171078 410171106 53004 TSNO $
PAIL 160753Z AUTO 15014KT 10SM OVC050 M02/M07 A2999 RMK AO2 SLP159 T10171072 TSNO $
PAIL 160653Z AUTO 14011KT 10SM BKN085 BKN120 OVC130 M02/M08 A3000 RMK AO2 SLP162 T10171078 TSNO $
PAIL 160553Z 14009KT 10SM SCT085 BKN120 OVC130 M02/M09 A2999 RMK AO2 SLP161 T10171094 11017 21056 55001 $
PAIL 160453Z 00000KT 10SM SCT085 OVC130 M05/M09 A2997 RMK AO2 SLP154 T10501094 $
PAIL 160353Z 35003KT 10SM SCT085 BKN130 M04/M09 A2998 RMK AO2 SLP155 T10441089 $
PAIL 160253Z 00000KT 10SM SCT085 BKN130 M04/M09 A3000 RMK AO2 SLP162 T10391089 55004
PAIL 160153Z 12003KT 10SM SCT080 SCT130 M02/M08 A2999 RMK AO2 SLP160 ACSL DSNT SE-W T10221083
PAIL 160053Z 06004KT 10SM SCT100 OVC130 M02/M08 A3000 RMK AO2 SLP162 T10221083
PAIL 152353Z 04007KT 10SM SCT100 OVC130 M03/M09 A3001 RMK AO2 SLP166 T10331089 11028 21100 58013
PAIL 152253Z 04005KT 10SM SCT100 OVC130 M03/M08 A3003 RMK AO2 SLP174 T10331083
PAIL 152153Z 12005KT 10SM CLR M05/M08 A3004 RMK AO2 SLP178 T10501083
PAIL 152053Z 04005KT 10SM CLR M05/M10 A3005 RMK AO2 SLP179 T10501100 53010
PAIL 151953Z 36008KT 10SM CLR M07/M12 A3004 RMK AO2 SLP176 T10721117
PAIL 151853Z 36009KT 10SM CLR M09/M13 A3002 RMK AO2 SLP170 T10941128
PAIL 151753Z 34012KT 10SM CLR M10/M13 A3002 RMK AO2 SLP169 T11001133 11089 21106 55014
PAIL 151653Z 36008G16KT 10SM CLR M10/M13 A3001 RMK AO2 SLP168 T11001128
PAIL 151553Z 35010KT 10SM CLR M09/M13 A3004 RMK AO2 SLP176 T10941128
PAIL 151453Z 35008KT 10SM CLR M09/M13 A3006 RMK AO2 SLP183 T10941133 58010
PAIL 151353Z AUTO 00000KT CLR M10/M13 A3007 RMK AO2 SLP186 T11001133 TSNO
PAIL 151253Z AUTO 33003KT CLR M09/M13 A3008 RMK AO2 SLP192 T10941128 TSNO
PAIL 151153Z AUTO 35005KT SCT035 M09/M13 A3009 RMK AO2 SLP194 T10891128 11072 21089 50010 TSNO
PAIL 151053Z AUTO 32004KT OVC039 M08/M12 A3009 RMK AO2 SLP195 T10831122 TSNO
PAIL 150953Z AUTO 29003KT OVC043 M08/M12 A3009 RMK AO2 SLP194 T10831122 TSNO
PAIL 150853Z AUTO 34007KT SCT043 M08/M13 A3006 RMK AO2 SLP183 T10831128 410671117 55004 TSNO
PAIL 150753Z AUTO 35010KT OVC046 M08/M13 A3006 RMK AO2 SLP183 T10781128 TSNO
PAIL 150653Z AUTO 36006KT 10SM OVC050 M07/M13 A3007 RMK AO2 SLP187 T10721128 TSNO
PAIL 150553Z 01005KT 10SM OVC060 M07/M13 A3007 RMK AO2 SLP188 T10721133 11067 21083 50005
PAIL 150453Z 33006KT 10SM BKN055 OVC070 M08/M12 A3007 RMK AO2 SLP188 T10781122
PAIL 150353Z 34005KT 10SM OVC075 M08/M13 A3007 RMK AO2 SLP188 T10781128
PAIL 150253Z 36005KT 10SM OVC070 M08/M14 A3006 RMK AO2 SLP182 T10781139 56015
PAIL 150153Z 36006KT 10SM BKN070 BKN130 M07/M14 A3006 RMK AO2 SLP182 T10721139
PAIL 150053Z 34009KT 10SM BKN110 BKN130 M07/M13 A3006 RMK AO2 SLP185 T10721133